CCU weather

Netaji Subhash Chandra Bose International Airport
Kolkata, West Bengal, India

Public forecast

Using degrees Celsius for public forecast. Weather courtesy of forecast.io.

METAR (pilot weather report)

Retrieved 2019/05/25 17:30 UTC (6 minutes ago):

VECC 251730Z 20010KT 4000 HZ FEW018 SCT100 25/23 Q1002 NOSIG

TAF (pilot weather forecast)

Retrieved 2019/05/25 12:39 UTC (5 hours ago):

TAF VECC 251100Z 2512/2618 18012KT 3500 HZ SCT018 BKN100 TEMPO 2512/2516 30015G30KT 1500 TSRA SCT015 FEW025CB OVC090 BECMG 2523/2601 2500 BR BECMG 2602/2604 3500 HZ SCT018 SCT100 TEMPO 2612/2616 2000 TSRA SCT015 FEW025CB OVC090 BECMG 2616/2618 2800 HZ